sensor_id;sensor_type;location;lat;lon;timestamp;P1;durP1;ratioP1;P2;durP2;ratioP2
40595;SDS011;26304;48.794;9.820;2023-04-06T00:03:05;2.13;;;2.03;;
40595;SDS011;26304;48.794;9.820;2023-04-06T00:08:49;1.90;;;1.80;;
40595;SDS011;26304;48.794;9.820;2023-04-06T00:14:32;2.50;;;1.85;;
40595;SDS011;26304;48.794;9.820;2023-04-06T00:20:14;2.20;;;2.10;;
40595;SDS011;26304;48.794;9.820;2023-04-06T00:25:58;1.83;;;1.73;;
40595;SDS011;26304;48.794;9.820;2023-04-06T00:31:41;1.70;;;1.60;;
40595;SDS011;26304;48.794;9.820;2023-04-06T00:37:24;2.10;;;2.00;;
40595;SDS011;26304;48.794;9.820;2023-04-06T00:43:08;1.90;;;1.80;;
40595;SDS011;26304;48.794;9.820;2023-04-06T00:48:53;1.88;;;1.60;;
40595;SDS011;26304;48.794;9.820;2023-04-06T00:54:36;1.92;;;1.65;;
40595;SDS011;26304;48.794;9.820;2023-04-06T01:00:20;1.80;;;1.70;;
40595;SDS011;26304;48.794;9.820;2023-04-06T01:06:03;1.80;;;1.70;;
40595;SDS011;26304;48.794;9.820;2023-04-06T01:11:45;1.63;;;1.52;;
40595;SDS011;26304;48.794;9.820;2023-04-06T01:17:29;1.60;;;1.50;;
40595;SDS011;26304;48.794;9.820;2023-04-06T01:23:13;1.80;;;1.70;;
40595;SDS011;26304;48.794;9.820;2023-04-06T01:28:55;1.42;;;1.33;;
40595;SDS011;26304;48.794;9.820;2023-04-06T01:34:38;1.80;;;1.70;;
40595;SDS011;26304;48.794;9.820;2023-04-06T01:40:22;1.45;;;1.35;;
40595;SDS011;26304;48.794;9.820;2023-04-06T01:46:04;1.52;;;1.42;;
40595;SDS011;26304;48.794;9.820;2023-04-06T01:51:50;1.73;;;1.63;;
40595;SDS011;26304;48.794;9.820;2023-04-06T01:57:34;1.80;;;1.70;;
40595;SDS011;26304;48.794;9.820;2023-04-06T02:03:17;1.63;;;1.52;;
40595;SDS011;26304;48.794;9.820;2023-04-06T02:08:59;1.90;;;1.80;;
40595;SDS011;26304;48.794;9.820;2023-04-06T02:14:43;1.88;;;1.67;;
40595;SDS011;26304;48.794;9.820;2023-04-06T02:20:25;1.70;;;1.60;;
40595;SDS011;26304;48.794;9.820;2023-04-06T02:26:08;1.73;;;1.63;;
40595;SDS011;26304;48.794;9.820;2023-04-06T02:31:52;1.67;;;1.58;;
40595;SDS011;26304;48.794;9.820;2023-04-06T02:37:34;1.30;;;1.20;;
40595;SDS011;26304;48.794;9.820;2023-04-06T02:43:17;1.50;;;1.40;;
40595;SDS011;26304;48.794;9.820;2023-04-06T02:49:01;1.40;;;1.30;;
40595;SDS011;26304;48.794;9.820;2023-04-06T02:54:44;1.40;;;1.30;;
40595;SDS011;26304;48.794;9.820;2023-04-06T03:00:26;1.25;;;1.15;;
40595;SDS011;26304;48.794;9.820;2023-04-06T03:06:10;1.60;;;1.50;;
40595;SDS011;26304;48.794;9.820;2023-04-06T03:11:53;1.17;;;1.17;;
40595;SDS011;26304;48.794;9.820;2023-04-06T03:17:36;1.50;;;1.40;;
40595;SDS011;26304;48.794;9.820;2023-04-06T03:23:19;1.30;;;1.20;;
40595;SDS011;26304;48.794;9.820;2023-04-06T03:29:02;1.50;;;1.40;;
40595;SDS011;26304;48.794;9.820;2023-04-06T03:34:44;2.03;;;1.35;;
40595;SDS011;26304;48.794;9.820;2023-04-06T03:40:28;2.35;;;1.67;;
40595;SDS011;26304;48.794;9.820;2023-04-06T03:46:11;3.05;;;1.45;;
40595;SDS011;26304;48.794;9.820;2023-04-06T03:51:53;2.78;;;1.42;;
40595;SDS011;26304;48.794;9.820;2023-04-06T03:57:37;1.58;;;1.48;;
40595;SDS011;26304;48.794;9.820;2023-04-06T04:03:20;2.05;;;1.48;;
40595;SDS011;26304;48.794;9.820;2023-04-06T04:09:04;2.97;;;1.80;;
40595;SDS011;26304;48.794;9.820;2023-04-06T04:14:48;3.15;;;1.55;;
40595;SDS011;26304;48.794;9.820;2023-04-06T04:20:30;4.32;;;1.73;;
40595;SDS011;26304;48.794;9.820;2023-04-06T04:26:13;1.83;;;1.48;;
40595;SDS011;26304;48.794;9.820;2023-04-06T04:31:57;4.53;;;1.55;;
40595;SDS011;26304;48.794;9.820;2023-04-06T04:37:40;4.47;;;2.17;;
40595;SDS011;26304;48.794;9.820;2023-04-06T04:43:22;14.85;;;2.70;;
40595;SDS011;26304;48.794;9.820;2023-04-06T04:49:06;4.10;;;2.05;;
40595;SDS011;26304;48.794;9.820;2023-04-06T04:54:49;3.80;;;2.33;;
40595;SDS011;26304;48.794;9.820;2023-04-06T05:00:31;3.90;;;2.20;;
40595;SDS011;26304;48.794;9.820;2023-04-06T05:06:15;4.72;;;2.55;;
40595;SDS011;26304;48.794;9.820;2023-04-06T05:11:59;3.63;;;2.13;;
40595;SDS011;26304;48.794;9.820;2023-04-06T05:17:41;4.10;;;2.20;;
40595;SDS011;26304;48.794;9.820;2023-04-06T05:23:25;7.90;;;2.38;;
40595;SDS011;26304;48.794;9.820;2023-04-06T05:29:08;6.20;;;2.60;;
40595;SDS011;26304;48.794;9.820;2023-04-06T05:34:51;5.15;;;2.58;;
40595;SDS011;26304;48.794;9.820;2023-04-06T05:40:35;4.65;;;2.25;;
40595;SDS011;26304;48.794;9.820;2023-04-06T05:46:17;4.88;;;2.45;;
40595;SDS011;26304;48.794;9.820;2023-04-06T05:52:00;2.88;;;1.95;;
40595;SDS011;26304;48.794;9.820;2023-04-06T05:57:44;4.90;;;1.98;;
40595;SDS011;26304;48.794;9.820;2023-04-06T06:03:26;2.72;;;1.80;;
40595;SDS011;26304;48.794;9.820;2023-04-06T06:09:10;2.38;;;2.13;;
40595;SDS011;26304;48.794;9.820;2023-04-06T06:14:55;3.85;;;2.28;;
40595;SDS011;26304;48.794;9.820;2023-04-06T06:20:38;3.00;;;2.30;;
40595;SDS011;26304;48.794;9.820;2023-04-06T06:26:20;4.30;;;2.08;;
40595;SDS011;26304;48.794;9.820;2023-04-06T06:32:04;3.85;;;2.10;;
40595;SDS011;26304;48.794;9.820;2023-04-06T06:37:47;3.30;;;1.83;;
40595;SDS011;26304;48.794;9.820;2023-04-06T06:43:29;2.55;;;2.00;;
40595;SDS011;26304;48.794;9.820;2023-04-06T06:49:13;2.08;;;1.88;;
40595;SDS011;26304;48.794;9.820;2023-04-06T06:54:56;2.30;;;1.88;;
40595;SDS011;26304;48.794;9.820;2023-04-06T07:00:38;2.95;;;2.00;;
40595;SDS011;26304;48.794;9.820;2023-04-06T07:06:22;3.45;;;1.98;;
40595;SDS011;26304;48.794;9.820;2023-04-06T07:12:05;4.10;;;1.70;;
40595;SDS011;26304;48.794;9.820;2023-04-06T07:17:47;2.03;;;1.83;;
40595;SDS011;26304;48.794;9.820;2023-04-06T07:23:31;2.67;;;1.77;;
40595;SDS011;26304;48.794;9.820;2023-04-06T07:29:14;1.60;;;1.50;;
40595;SDS011;26304;48.794;9.820;2023-04-06T07:34:56;2.20;;;1.80;;
40595;SDS011;26304;48.794;9.820;2023-04-06T07:40:40;3.00;;;2.65;;
40595;SDS011;26304;48.794;9.820;2023-04-06T07:46:23;2.45;;;2.25;;
40595;SDS011;26304;48.794;9.820;2023-04-06T07:52:06;2.88;;;2.17;;
40595;SDS011;26304;48.794;9.820;2023-04-06T07:57:49;2.13;;;1.75;;
40595;SDS011;26304;48.794;9.820;2023-04-06T08:03:33;2.60;;;2.40;;
40595;SDS011;26304;48.794;9.820;2023-04-06T08:09:15;3.08;;;1.95;;
40595;SDS011;26304;48.794;9.820;2023-04-06T08:15:00;2.15;;;1.95;;
40595;SDS011;26304;48.794;9.820;2023-04-06T08:20:43;2.42;;;2.22;;
40595;SDS011;26304;48.794;9.820;2023-04-06T08:26:25;2.60;;;1.85;;
40595;SDS011;26304;48.794;9.820;2023-04-06T08:32:10;2.22;;;1.80;;
40595;SDS011;26304;48.794;9.820;2023-04-06T08:37:52;1.95;;;1.85;;
40595;SDS011;26304;48.794;9.820;2023-04-06T08:43:36;1.75;;;1.65;;
40595;SDS011;26304;48.794;9.820;2023-04-06T08:49:25;2.03;;;1.80;;
40595;SDS011;26304;48.794;9.820;2023-04-06T08:55:09;1.90;;;1.80;;
40595;SDS011;26304;48.794;9.820;2023-04-06T09:00:52;2.00;;;1.77;;
40595;SDS011;26304;48.794;9.820;2023-04-06T09:06:36;1.98;;;1.88;;
40595;SDS011;26304;48.794;9.820;2023-04-06T09:12:22;1.75;;;1.65;;
40595;SDS011;26304;48.794;9.820;2023-04-06T09:18:06;1.95;;;1.83;;
40595;SDS011;26304;48.794;9.820;2023-04-06T09:23:58;1.80;;;1.70;;
40595;SDS011;26304;48.794;9.820;2023-04-06T09:29:42;1.88;;;1.77;;
40595;SDS011;26304;48.794;9.820;2023-04-06T09:35:25;2.67;;;1.77;;
40595;SDS011;26304;48.794;9.820;2023-04-06T09:41:11;2.45;;;1.58;;
40595;SDS011;26304;48.794;9.820;2023-04-06T09:47:03;3.35;;;1.52;;
40595;SDS011;26304;48.794;9.820;2023-04-06T09:52:50;2.00;;;1.85;;
40595;SDS011;26304;48.794;9.820;2023-04-06T09:58:36;2.25;;;1.90;;
40595;SDS011;26304;48.794;9.820;2023-04-06T10:04:26;1.70;;;1.60;;
40595;SDS011;26304;48.794;9.820;2023-04-06T10:10:18;1.83;;;1.73;;
40595;SDS011;26304;48.794;9.820;2023-04-06T10:16:03;1.50;;;1.40;;
40595;SDS011;26304;48.794;9.820;2023-04-06T10:21:47;1.92;;;1.83;;
40595;SDS011;26304;48.794;9.820;2023-04-06T10:27:32;1.77;;;1.67;;
40595;SDS011;26304;48.794;9.820;2023-04-06T10:33:16;2.10;;;1.85;;
40595;SDS011;26304;48.794;9.820;2023-04-06T10:39:00;2.58;;;1.83;;
40595;SDS011;26304;48.794;9.820;2023-04-06T10:44:44;2.15;;;1.98;;
40595;SDS011;26304;48.794;9.820;2023-04-06T10:50:28;2.50;;;2.30;;
40595;SDS011;26304;48.794;9.820;2023-04-06T10:56:12;2.90;;;2.35;;
40595;SDS011;26304;48.794;9.820;2023-04-06T11:01:55;2.58;;;2.22;;
40595;SDS011;26304;48.794;9.820;2023-04-06T11:07:39;2.95;;;2.15;;
40595;SDS011;26304;48.794;9.820;2023-04-06T11:13:22;3.10;;;2.28;;
40595;SDS011;26304;48.794;9.820;2023-04-06T11:19:04;3.28;;;1.98;;
40595;SDS011;26304;48.794;9.820;2023-04-06T11:24:49;4.22;;;2.15;;
40595;SDS011;26304;48.794;9.820;2023-04-06T11:30:32;2.47;;;1.83;;
40595;SDS011;26304;48.794;9.820;2023-04-06T11:36:14;1.95;;;1.42;;
40595;SDS011;26304;48.794;9.820;2023-04-06T11:41:59;2.13;;;1.60;;
40595;SDS011;26304;48.794;9.820;2023-04-06T11:47:43;2.00;;;1.80;;
40595;SDS011;26304;48.794;9.820;2023-04-06T11:53:25;1.85;;;1.60;;
40595;SDS011;26304;48.794;9.820;2023-04-06T11:59:09;2.42;;;1.85;;
40595;SDS011;26304;48.794;9.820;2023-04-06T12:04:52;2.78;;;2.13;;
40595;SDS011;26304;48.794;9.820;2023-04-06T12:10:34;5.88;;;2.60;;
40595;SDS011;26304;48.794;9.820;2023-04-06T12:16:18;6.78;;;3.25;;
40595;SDS011;26304;48.794;9.820;2023-04-06T12:22:01;9.20;;;4.17;;
40595;SDS011;26304;48.794;9.820;2023-04-06T12:27:43;5.57;;;3.40;;
40595;SDS011;26304;48.794;9.820;2023-04-06T12:33:27;5.43;;;3.70;;
40595;SDS011;26304;48.794;9.820;2023-04-06T12:39:10;6.10;;;3.50;;
40595;SDS011;26304;48.794;9.820;2023-04-06T12:44:53;6.68;;;3.72;;
40595;SDS011;26304;48.794;9.820;2023-04-06T12:50:36;4.88;;;3.08;;
40595;SDS011;26304;48.794;9.820;2023-04-06T12:56:19;3.63;;;3.13;;
40595;SDS011;26304;48.794;9.820;2023-04-06T13:02:03;3.15;;;2.55;;
40595;SDS011;26304;48.794;9.820;2023-04-06T13:07:47;3.38;;;3.08;;
40595;SDS011;26304;48.794;9.820;2023-04-06T13:13:30;4.25;;;3.22;;
40595;SDS011;26304;48.794;9.820;2023-04-06T13:19:12;3.38;;;3.08;;
40595;SDS011;26304;48.794;9.820;2023-04-06T13:24:57;3.20;;;2.90;;
40595;SDS011;26304;48.794;9.820;2023-04-06T13:30:39;2.80;;;2.60;;
40595;SDS011;26304;48.794;9.820;2023-04-06T13:36:22;4.22;;;3.20;;
40595;SDS011;26304;48.794;9.820;2023-04-06T13:42:05;2.92;;;2.72;;
40595;SDS011;26304;48.794;9.820;2023-04-06T13:47:48;2.67;;;2.47;;
40595;SDS011;26304;48.794;9.820;2023-04-06T13:53:31;3.60;;;2.80;;
40595;SDS011;26304;48.794;9.820;2023-04-06T13:59:15;5.23;;;2.60;;
40595;SDS011;26304;48.794;9.820;2023-04-06T14:04:58;2.63;;;2.42;;
40595;SDS011;26304;48.794;9.820;2023-04-06T14:10:41;4.18;;;2.30;;
40595;SDS011;26304;48.794;9.820;2023-04-06T14:16:25;2.87;;;2.57;;
40595;SDS011;26304;48.794;9.820;2023-04-06T14:22:07;4.03;;;2.75;;
40595;SDS011;26304;48.794;9.820;2023-04-06T14:27:51;3.33;;;2.85;;
40595;SDS011;26304;48.794;9.820;2023-04-06T14:33:34;4.03;;;3.30;;
40595;SDS011;26304;48.794;9.820;2023-04-06T14:39:17;2.53;;;2.20;;
40595;SDS011;26304;48.794;9.820;2023-04-06T14:44:59;2.78;;;2.58;;
40595;SDS011;26304;48.794;9.820;2023-04-06T14:50:51;4.75;;;2.60;;
40595;SDS011;26304;48.794;9.820;2023-04-06T14:56:34;2.70;;;2.50;;
40595;SDS011;26304;48.794;9.820;2023-04-06T15:02:18;3.28;;;2.97;;
40595;SDS011;26304;48.794;9.820;2023-04-06T15:08:02;2.30;;;2.20;;
40595;SDS011;26304;48.794;9.820;2023-04-06T15:13:44;3.05;;;2.65;;
40595;SDS011;26304;48.794;9.820;2023-04-06T15:19:27;2.85;;;2.65;;
40595;SDS011;26304;48.794;9.820;2023-04-06T15:25:10;2.47;;;2.28;;
40595;SDS011;26304;48.794;9.820;2023-04-06T15:30:53;5.20;;;2.88;;
40595;SDS011;26304;48.794;9.820;2023-04-06T15:36:36;2.38;;;2.17;;
40595;SDS011;26304;48.794;9.820;2023-04-06T15:42:19;3.25;;;2.40;;
40595;SDS011;26304;48.794;9.820;2023-04-06T15:48:04;2.83;;;2.63;;
40595;SDS011;26304;48.794;9.820;2023-04-06T15:53:47;3.13;;;2.75;;
40595;SDS011;26304;48.794;9.820;2023-04-06T15:59:30;3.58;;;2.75;;
40595;SDS011;26304;48.794;9.820;2023-04-06T16:05:16;2.47;;;2.28;;
40595;SDS011;26304;48.794;9.820;2023-04-06T16:10:58;2.65;;;2.45;;
40595;SDS011;26304;48.794;9.820;2023-04-06T16:16:42;3.72;;;2.75;;
40595;SDS011;26304;48.794;9.820;2023-04-06T16:22:24;3.47;;;2.97;;
40595;SDS011;26304;48.794;9.820;2023-04-06T16:28:08;4.68;;;3.42;;
40595;SDS011;26304;48.794;9.820;2023-04-06T16:33:52;4.93;;;3.05;;
40595;SDS011;26304;48.794;9.820;2023-04-06T16:39:36;3.30;;;3.00;;
40595;SDS011;26304;48.794;9.820;2023-04-06T16:45:19;3.65;;;2.92;;
40595;SDS011;26304;48.794;9.820;2023-04-06T16:51:04;3.00;;;2.80;;
40595;SDS011;26304;48.794;9.820;2023-04-06T16:56:47;3.70;;;3.08;;
40595;SDS011;26304;48.794;9.820;2023-04-06T17:02:30;2.95;;;2.70;;
40595;SDS011;26304;48.794;9.820;2023-04-06T17:08:17;3.35;;;2.55;;
40595;SDS011;26304;48.794;9.820;2023-04-06T17:13:59;5.07;;;3.22;;
40595;SDS011;26304;48.794;9.820;2023-04-06T17:19:41;3.20;;;2.90;;
40595;SDS011;26304;48.794;9.820;2023-04-06T17:25:25;2.63;;;2.33;;
40595;SDS011;26304;48.794;9.820;2023-04-06T17:31:08;2.53;;;2.33;;
40595;SDS011;26304;48.794;9.820;2023-04-06T17:36:51;3.72;;;2.20;;
40595;SDS011;26304;48.794;9.820;2023-04-06T17:42:35;2.20;;;2.00;;
40595;SDS011;26304;48.794;9.820;2023-04-06T17:48:18;2.50;;;2.25;;
40595;SDS011;26304;48.794;9.820;2023-04-06T17:54:00;4.70;;;2.45;;
40595;SDS011;26304;48.794;9.820;2023-04-06T17:59:44;2.67;;;2.33;;
40595;SDS011;26304;48.794;9.820;2023-04-06T18:05:27;4.10;;;2.40;;
40595;SDS011;26304;48.794;9.820;2023-04-06T18:11:15;4.88;;;2.00;;
40595;SDS011;26304;48.794;9.820;2023-04-06T18:17:01;3.13;;;1.98;;
40595;SDS011;26304;48.794;9.820;2023-04-06T18:22:43;4.25;;;2.25;;
40595;SDS011;26304;48.794;9.820;2023-04-06T18:28:26;3.67;;;2.42;;
40595;SDS011;26304;48.794;9.820;2023-04-06T18:34:09;4.00;;;3.05;;
40595;SDS011;26304;48.794;9.820;2023-04-06T18:39:52;4.70;;;3.53;;
40595;SDS011;26304;48.794;9.820;2023-04-06T18:45:34;4.07;;;3.40;;
40595;SDS011;26304;48.794;9.820;2023-04-06T18:51:19;4.37;;;3.97;;
40595;SDS011;26304;48.794;9.820;2023-04-06T18:57:02;4.30;;;3.80;;
40595;SDS011;26304;48.794;9.820;2023-04-06T19:02:45;3.75;;;3.17;;
40595;SDS011;26304;48.794;9.820;2023-04-06T19:08:28;3.83;;;3.50;;
40595;SDS011;26304;48.794;9.820;2023-04-06T19:14:11;4.32;;;3.47;;
40595;SDS011;26304;48.794;9.820;2023-04-06T19:19:53;4.65;;;3.58;;
40595;SDS011;26304;48.794;9.820;2023-04-06T19:25:38;3.97;;;3.60;;
40595;SDS011;26304;48.794;9.820;2023-04-06T19:31:23;3.80;;;3.50;;
40595;SDS011;26304;48.794;9.820;2023-04-06T19:37:07;3.90;;;3.53;;
40595;SDS011;26304;48.794;9.820;2023-04-06T19:42:51;4.05;;;3.15;;
40595;SDS011;26304;48.794;9.820;2023-04-06T19:48:33;3.70;;;3.30;;
40595;SDS011;26304;48.794;9.820;2023-04-06T19:54:16;4.50;;;3.80;;
40595;SDS011;26304;48.794;9.820;2023-04-06T19:59:59;5.78;;;5.20;;
40595;SDS011;26304;48.794;9.820;2023-04-06T20:05:42;5.80;;;4.78;;
40595;SDS011;26304;48.794;9.820;2023-04-06T20:11:24;5.65;;;5.15;;
40595;SDS011;26304;48.794;9.820;2023-04-06T20:17:08;6.78;;;6.18;;
40595;SDS011;26304;48.794;9.820;2023-04-06T20:22:51;5.93;;;5.43;;
40595;SDS011;26304;48.794;9.820;2023-04-06T20:28:33;6.63;;;6.13;;
40595;SDS011;26304;48.794;9.820;2023-04-06T20:34:17;5.55;;;5.00;;
40595;SDS011;26304;48.794;9.820;2023-04-06T20:39:59;6.43;;;5.93;;
40595;SDS011;26304;48.794;9.820;2023-04-06T20:45:42;5.55;;;5.05;;
40595;SDS011;26304;48.794;9.820;2023-04-06T20:51:26;5.10;;;4.70;;
40595;SDS011;26304;48.794;9.820;2023-04-06T20:57:08;5.47;;;4.93;;
40595;SDS011;26304;48.794;9.820;2023-04-06T21:02:50;4.90;;;4.50;;
40595;SDS011;26304;48.794;9.820;2023-04-06T21:08:34;4.97;;;4.47;;
40595;SDS011;26304;48.794;9.820;2023-04-06T21:14:17;4.20;;;3.85;;
40595;SDS011;26304;48.794;9.820;2023-04-06T21:19:59;5.03;;;4.47;;
40595;SDS011;26304;48.794;9.820;2023-04-06T21:25:45;4.50;;;4.10;;
40595;SDS011;26304;48.794;9.820;2023-04-06T21:31:27;4.47;;;4.15;;
40595;SDS011;26304;48.794;9.820;2023-04-06T21:37:09;4.13;;;3.83;;
40595;SDS011;26304;48.794;9.820;2023-04-06T21:42:53;3.60;;;3.30;;
40595;SDS011;26304;48.794;9.820;2023-04-06T21:48:36;4.25;;;3.85;;
40595;SDS011;26304;48.794;9.820;2023-04-06T21:54:18;3.47;;;3.28;;
40595;SDS011;26304;48.794;9.820;2023-04-06T22:00:02;3.38;;;3.08;;
40595;SDS011;26304;48.794;9.820;2023-04-06T22:05:49;3.10;;;2.90;;
40595;SDS011;26304;48.794;9.820;2023-04-06T22:11:31;3.47;;;3.28;;
40595;SDS011;26304;48.794;9.820;2023-04-06T22:17:15;3.08;;;2.88;;
40595;SDS011;26304;48.794;9.820;2023-04-06T22:22:57;3.15;;;2.95;;
40595;SDS011;26304;48.794;9.820;2023-04-06T22:28:40;3.65;;;3.45;;
40595;SDS011;26304;48.794;9.820;2023-04-06T22:34:24;3.78;;;3.47;;
40595;SDS011;26304;48.794;9.820;2023-04-06T22:40:07;2.72;;;2.63;;
40595;SDS011;26304;48.794;9.820;2023-04-06T22:45:50;3.00;;;2.80;;
40595;SDS011;26304;48.794;9.820;2023-04-06T22:51:34;3.22;;;3.03;;
40595;SDS011;26304;48.794;9.820;2023-04-06T22:57:16;2.85;;;2.55;;
40595;SDS011;26304;48.794;9.820;2023-04-06T23:02:58;2.90;;;2.70;;
40595;SDS011;26304;48.794;9.820;2023-04-06T23:08:43;2.60;;;2.40;;
40595;SDS011;26304;48.794;9.820;2023-04-06T23:14:26;3.05;;;2.85;;
40595;SDS011;26304;48.794;9.820;2023-04-06T23:20:09;2.40;;;2.20;;
40595;SDS011;26304;48.794;9.820;2023-04-06T23:25:53;2.50;;;2.30;;
40595;SDS011;26304;48.794;9.820;2023-04-06T23:31:35;2.55;;;2.05;;
40595;SDS011;26304;48.794;9.820;2023-04-06T23:37:17;2.67;;;2.47;;
40595;SDS011;26304;48.794;9.820;2023-04-06T23:43:01;2.50;;;2.30;;
40595;SDS011;26304;48.794;9.820;2023-04-06T23:48:44;2.28;;;2.17;;
40595;SDS011;26304;48.794;9.820;2023-04-06T23:54:26;2.25;;;2.15;;
